Date,TemperatureHighF,TemperatureAvgF,TemperatureLowF,DewpointHighF,DewpointAvgF,DewpointLowF,HumidityHigh,HumidityAvg,HumidityLow,PressureMaxIn,PressureMinIn,WindSpeedMaxMPH,WindSpeedAvgMPH,GustSpeedMaxMPH,PrecipitationSumIn
2013-1-1,43,39,30,30,25,14,74,58,43,30.02,29.86,16,10,23,0.00
2013-2-20,39,34,32,27,14,9,60,43,34,29.88,29.75,27,20,38,0.00
2013-3-26,52,51,50,30,28,27,46,40,37,29.75,29.74,9,9,16,0.00
2013-3-27,52,52,52,27,27,27,37,37,37,29.74,29.74,9,9,17,0.00
2013-3-29,57,50,45,28,25,-100,52,38,30,30.15,30.06,18,8,25,0.00
2013-3-30,61,50,37,32,25,19,69,42,21,30.18,30.07,16,6,20,0.00
2013-3-31,57,48,39,46,33,-100,100,61,31,30.13,29.69,17,6,25,0.03
2013-4-1,64,51,39,46,38,10,100,65,28,29.92,29.63,31,12,39,0.04
2013-4-2,46,40,34,18,13,10,47,33,22,30.09,29.92,22,12,32,0.00
2013-4-3,48,40,34,16,12,9,40,31,22,30.32,30.09,23,12,30,0.00
2013-4-4,54,43,32,30,20,10,54,40,27,30.41,30.09,15,6,21,0.00
2013-4-5,66,51,43,32,25,18,65,39,17,30.10,29.71,22,8,30,0.00
2013-4-6,54,45,36,28,17,9,60,34,17,30.32,29.99,18,8,28,0.00
2013-4-7,66,52,39,45,34,25,75,52,25,30.32,29.99,15,6,22,0.00
2013-4-8,73,60,50,46,44,39,81,57,28,30.07,29.98,15,5,20,0.00
2013-4-9,84,70,54,52,44,34,82,45,17,30.00,29.91,28,8,37,0.00
2013-4-10,70,61,57,57,51,46,100,71,46,29.94,29.81,30,9,36,0.34
2013-4-11,63,57,48,61,52,41,100,82,59,30.04,29.76,17,8,25,0.39
2013-4-12,52,46,45,45,43,39,93,88,61,30.02,29.71,23,14,31,0.01
2013-4-13,61,51,41,45,38,34,93,65,36,29.98,29.75,14,5,18,0.01
2013-4-14,61,54,46,45,34,27,87,50,28,30.21,29.98,22,7,27,0.00
2013-4-15,55,51,48,45,33,27,87,51,34,30.38,30.21,14,8,17,0.00
2013-4-16,72,59,48,55,50,45,87,71,52,30.38,30.12,15,7,22,0.00
2013-4-17,72,64,57,57,46,32,87,57,26,30.29,30.11,13,6,17,0.00
2013-4-18,57,54,52,54,46,43,93,75,58,30.34,30.11,14,6,20,0.00
2013-4-19,81,68,55,64,61,54,100,78,50,30.11,29.65,17,8,24,0.04
2013-4-20,64,56,50,63,36,25,93,52,28,30.28,29.67,25,14,35,0.15
2013-4-21,55,47,37,30,23,18,52,39,24,30.63,30.28,15,7,22,0.00
2013-4-22,54,49,43,37,32,28,66,53,37,30.66,30.50,18,11,25,0.00
2013-4-23,54,48,43,43,37,32,93,68,53,30.50,30.13,14,9,18,0.00
2013-4-24,73,58,43,54,45,37,86,64,40,30.13,29.81,12,6,18,0.00
2013-4-25,66,58,48,54,32,21,77,40,17,30.27,29.86,23,10,31,0.00
2013-4-26,66,58,46,37,32,21,66,40,17,30.40,30.27,12,4,20,0.00
2013-4-27,70,60,46,32,29,27,52,32,19,30.43,30.29,12,5,20,0.00
2013-4-28,72,60,48,43,34,27,66,39,21,30.32,30.20,15,5,20,0.00
2013-4-29,57,55,54,52,48,39,87,77,50,30.25,30.19,10,5,0,0.04
2013-4-30,63,56,54,50,45,28,87,70,29,30.33,30.21,12,6,18,0.09
2013-5-1,64,56,46,46,38,27,71,53,23,30.49,30.34,14,6,18,0.00
2013-5-2,70,58,46,46,43,39,87,61,32,30.49,30.34,8,3,0,0.00
2013-5-3,63,57,52,48,42,36,76,57,38,30.46,30.38,12,7,17,0.00
2013-5-4,64,55,46,46,44,39,93,66,41,30.39,30.27,15,7,20,0.00
2013-5-5,59,53,48,45,42,37,81,66,50,30.30,30.24,13,7,20,0.00
2013-5-6,64,56,48,50,47,45,87,71,55,30.27,30.17,10,4,0,0.00
2013-5-7,64,54,52,54,48,46,87,82,67,30.18,30.13,3,0,0,0.00
2013-5-8,68,64,61,63,61,59,100,90,77,30.06,30.01,17,12,20,0.25
2013-5-10,79,74,77,55,45,-100,47,43,41,29.99,29.96,10,6,0,0.00
2013-5-11,66,65,64,63,63,63,93,90,88,29.83,29.82,3,2,0,0.00
2013-5-12,68,60,55,36,30,28,35,33,30,29.93,29.72,21,17,28,0.00
2013-6-7,64,64,64,63,63,63,93,93,93,29.90,29.87,13,12,17,0.00
2013-7-6,93,93,93,70,70,70,46,46,46,30.08,30.08,12,12,17,0.00
2013-7-9,90,86,79,72,68,66,78,58,46,30.03,29.99,12,7,18,0.00
2013-7-10,90,81,75,75,67,-100,88,68,49,30.03,29.82,13,4,20,0.00
2013-7-11,88,83,81,73,68,61,78,61,45,29.92,29.81,9,6,0,0.00
2013-7-12,81,76,72,72,65,61,100,69,54,30.08,29.92,16,9,25,0.02
2013-7-13,82,76,72,75,73,70,100,89,74,30.28,30.09,13,6,17,0.10
2013-7-14,91,84,75,75,73,70,94,73,49,30.34,30.25,10,5,17,0.24
2013-7-15,97,88,79,72,71,70,74,57,41,30.25,30.15,10,8,9,0.00
2013-7-16,97,86,79,72,67,61,73,55,30,30.20,30.15,9,6,0,0.00
2013-7-17,93,83,81,72,63,-100,74,56,41,30.19,30.06,6,2,0,0.00
2013-7-18,95,86,81,73,72,70,69,61,46,30.07,29.97,10,4,16,0.00
2013-7-19,95,80,84,77,60,-100,74,62,52,29.98,29.84,12,6,0,0.00
2013-7-20,93,86,79,75,72,70,83,63,46,29.83,29.75,14,5,20,0.02
2013-7-21,88,81,77,73,68,55,83,65,33,29.96,29.84,10,4,0,0.00
2013-7-22,88,80,77,75,72,70,88,78,58,29.95,29.82,8,3,0,0.01
2013-7-23,90,80,75,75,72,70,94,78,52,29.80,29.58,10,6,0,0.45
2013-7-24,82,80,73,70,64,55,83,58,41,29.86,29.62,16,9,22,0.00
2013-7-25,72,70,66,59,56,50,68,62,53,30.04,29.93,10,8,18,0.00
2013-7-26,84,74,70,66,59,55,78,61,39,30.05,30.00,10,6,18,0.00
2013-7-27,86,76,68,66,64,61,88,68,45,30.05,29.97,12,4,17,0.00
2013-7-28,82,76,72,72,68,66,94,79,61,29.99,29.91,14,5,17,0.15
2013-7-29,86,75,70,70,65,52,94,75,34,30.11,29.97,13,3,17,0.00
2013-7-30,81,76,72,59,56,55,64,51,41,30.18,30.11,10,7,16,0.00
2013-7-31,82,74,64,63,59,57,77,60,42,30.17,30.04,8,2,0,0.00
2013-8-1,73,72,70,70,67,64,94,85,73,30.04,29.85,7,4,0,0.05
2013-8-5,79,71,63,52,50,46,67,48,31,30.07,29.99,8,5,17,0.00
2013-8-6,81,74,64,63,55,52,77,52,36,30.13,30.06,12,5,18,0.00
2013-8-7,75,74,72,68,64,63,83,72,64,30.14,30.07,9,3,0,0.00
2013-8-8,81,74,72,72,71,68,94,87,74,30.07,30.03,7,3,0,0.08
2013-8-9,86,84,82,73,73,73,74,71,66,29.87,29.85,9,5,21,0.00
2013-8-10,84,76,73,73,65,57,88,70,45,30.05,29.87,10,5,16,0.00
2013-8-11,84,73,66,66,58,54,78,59,39,30.11,30.04,10,4,0,0.00
2013-8-12,82,75,72,68,67,64,88,76,57,30.04,29.94,3,1,0,0.00
2013-8-13,79,75,72,73,68,64,100,83,61,29.83,29.72,6,2,0,0.15
2013-8-14,75,73,72,52,52,52,49,46,43,29.89,29.88,17,17,25,0.00
2013-8-15,79,66,57,52,50,48,82,61,34,30.14,30.07,9,4,0,0.00
2013-8-16,81,59,68,55,28,-100,64,53,32,30.16,30.15,7,4,0,0.00
2013-8-17,82,66,63,55,54,52,77,70,34,30.26,30.23,5,1,0,0.00
2013-8-18,73,71,70,57,57,57,64,61,56,30.24,30.14,7,2,0,0.00
2013-8-19,75,69,66,63,62,61,88,79,60,30.13,30.11,3,1,0,0.00
2013-8-20,82,72,68,66,65,64,88,81,58,30.13,30.06,3,2,0,0.00
2013-8-23,79,79,79,61,61,61,54,54,54,29.99,29.99,6,6,0,0.00
2013-8-24,79,79,79,46,46,46,31,31,31,30.29,30.29,8,8,0,0.00
2013-8-27,88,29,86,66,-45,-100,51,16,45,29.89,29.88,12,10,0,0.00
2013-8-28,75,25,75,72,-43,-100,88,29,88,29.88,29.88,0,0,0,0.00
2013-8-29,81,77,73,72,69,64,94,78,57,30.01,29.88,10,4,0,0.00
2013-8-30,79,79,79,68,68,68,69,69,69,29.97,29.97,12,12,16,0.00
2013-8-31,79,79,79,70,70,70,73,73,73,29.87,29.87,8,8,0,0.00
2013-9-2,77,77,77,73,73,73,88,88,88,29.85,29.74,3,1,0,0.00
2013-10-8,70,65,61,45,43,39,55,43,37,30.34,30.25,10,7,0,0.00
2013-10-9,64,60,55,48,45,39,63,57,51,30.41,30.32,14,9,20,0.00
2013-10-10,61,58,55,52,50,48,87,76,67,30.29,30.21,12,11,18,0.00
2013-10-11,64,62,61,61,57,55,88,84,82,30.07,30.04,14,11,20,0.01
2013-10-12,72,70,68,54,52,48,59,52,49,30.22,30.09,13,10,22,0.00
2013-10-13,63,61,57,54,52,50,82,72,63,30.40,30.31,12,9,0,0.00
2013-10-14,63,61,59,52,52,52,76,72,67,30.30,30.29,5,2,0,0.00
2013-10-16,63,63,63,54,54,54,72,72,72,30.07,30.07,0,0,0,0.00